sensor_id;sensor_type;location;lat;lon;timestamp;pressure;altitude;pressure_sealevel;temperature;humidity
63281;BME280;49406;51.044;3.766;2023-10-09T00:01:10;102220.72;;;16.07;100.00
63281;BME280;49406;51.044;3.766;2023-10-09T00:03:48;102215.46;;;16.12;100.00
63281;BME280;49406;51.044;3.766;2023-10-09T00:06:26;102219.77;;;16.21;100.00
63281;BME280;49406;51.044;3.766;2023-10-09T00:09:10;102235.76;;;16.37;100.00
63281;BME280;49406;51.044;3.766;2023-10-09T00:12:02;102241.67;;;16.49;100.00
63281;BME280;49406;51.044;3.766;2023-10-09T00:14:43;102241.16;;;16.54;100.00
63281;BME280;49406;51.044;3.766;2023-10-09T00:17:21;102246.45;;;16.54;100.00
63281;BME280;49406;51.044;3.766;2023-10-09T00:19:56;102244.15;;;16.54;100.00
63281;BME280;49406;51.044;3.766;2023-10-09T00:22:33;102240.98;;;16.53;100.00
63281;BME280;49406;51.044;3.766;2023-10-09T00:25:11;102242.63;;;16.64;100.00
63281;BME280;49406;51.044;3.766;2023-10-09T00:27:57;102246.39;;;16.68;100.00
63281;BME280;49406;51.044;3.766;2023-10-09T00:30:33;102238.61;;;16.67;100.00
63281;BME280;49406;51.044;3.766;2023-10-09T00:33:08;102235.93;;;16.65;100.00
63281;BME280;49406;51.044;3.766;2023-10-09T00:35:44;102232.35;;;16.60;100.00
63281;BME280;49406;51.044;3.766;2023-10-09T00:38:27;102235.41;;;16.65;100.00
63281;BME280;49406;51.044;3.766;2023-10-09T00:41:07;102238.25;;;16.67;100.00
63281;BME280;49406;51.044;3.766;2023-10-09T00:43:45;102236.32;;;16.67;100.00
63281;BME280;49406;51.044;3.766;2023-10-09T00:46:20;102234.18;;;16.66;100.00
63281;BME280;49406;51.044;3.766;2023-10-09T00:48:59;102229.38;;;16.63;100.00
63281;BME280;49406;51.044;3.766;2023-10-09T00:51:36;102226.68;;;16.56;100.00
63281;BME280;49406;51.044;3.766;2023-10-09T00:54:16;102221.89;;;16.48;100.00
63281;BME280;49406;51.044;3.766;2023-10-09T00:56:52;102222.77;;;16.46;100.00
63281;BME280;49406;51.044;3.766;2023-10-09T00:59:32;102220.42;;;16.40;100.00
63281;BME280;49406;51.044;3.766;2023-10-09T01:02:07;102223.94;;;16.39;100.00
63281;BME280;49406;51.044;3.766;2023-10-09T01:04:43;102218.80;;;16.35;100.00
63281;BME280;49406;51.044;3.766;2023-10-09T01:07:18;102218.42;;;16.31;100.00
63281;BME280;49406;51.044;3.766;2023-10-09T01:09:59;102212.38;;;16.26;100.00
63281;BME280;49406;51.044;3.766;2023-10-09T01:12:43;102216.98;;;16.27;100.00
63281;BME280;49406;51.044;3.766;2023-10-09T01:15:20;102206.27;;;16.33;100.00
63281;BME280;49406;51.044;3.766;2023-10-09T01:18:09;102206.98;;;16.35;100.00
63281;BME280;49406;51.044;3.766;2023-10-09T01:20:44;102199.04;;;16.33;100.00
63281;BME280;49406;51.044;3.766;2023-10-09T01:23:18;102198.67;;;16.31;100.00
63281;BME280;49406;51.044;3.766;2023-10-09T01:25:53;102201.45;;;16.28;100.00
63281;BME280;49406;51.044;3.766;2023-10-09T01:28:26;102197.01;;;16.21;100.00
63281;BME280;49406;51.044;3.766;2023-10-09T01:31:02;102198.06;;;16.20;100.00
63281;BME280;49406;51.044;3.766;2023-10-09T01:33:36;102198.77;;;16.23;100.00
63281;BME280;49406;51.044;3.766;2023-10-09T01:36:11;102192.23;;;16.20;100.00
63281;BME280;49406;51.044;3.766;2023-10-09T01:38:48;102188.17;;;16.19;100.00
63281;BME280;49406;51.044;3.766;2023-10-09T01:41:23;102190.64;;;16.17;100.00
63281;BME280;49406;51.044;3.766;2023-10-09T01:43:58;102185.29;;;16.11;100.00
63281;BME280;49406;51.044;3.766;2023-10-09T01:46:43;102184.55;;;16.07;100.00
63281;BME280;49406;51.044;3.766;2023-10-09T01:49:19;102181.70;;;16.03;100.00
63281;BME280;49406;51.044;3.766;2023-10-09T01:52:03;102179.21;;;15.99;100.00
63281;BME280;49406;51.044;3.766;2023-10-09T01:54:42;102182.59;;;16.03;100.00
63281;BME280;49406;51.044;3.766;2023-10-09T01:57:21;102177.64;;;16.00;100.00
63281;BME280;49406;51.044;3.766;2023-10-09T01:59:57;102173.20;;;15.97;100.00
63281;BME280;49406;51.044;3.766;2023-10-09T02:02:32;102186.23;;;15.95;100.00
63281;BME280;49406;51.044;3.766;2023-10-09T02:05:08;102184.61;;;15.92;100.00
63281;BME280;49406;51.044;3.766;2023-10-09T02:07:44;102188.84;;;15.89;100.00
63281;BME280;49406;51.044;3.766;2023-10-09T02:10:25;102186.38;;;15.91;100.00
63281;BME280;49406;51.044;3.766;2023-10-09T02:13:06;102191.17;;;15.96;100.00
63281;BME280;49406;51.044;3.766;2023-10-09T02:15:39;102186.80;;;15.98;100.00
63281;BME280;49406;51.044;3.766;2023-10-09T02:18:26;102189.43;;;15.97;100.00
63281;BME280;49406;51.044;3.766;2023-10-09T02:21:12;102181.45;;;15.93;100.00
63281;BME280;49406;51.044;3.766;2023-10-09T02:23:47;102177.54;;;15.87;100.00
63281;BME280;49406;51.044;3.766;2023-10-09T02:26:22;102181.56;;;15.82;100.00
63281;BME280;49406;51.044;3.766;2023-10-09T02:28:59;102185.83;;;15.86;100.00
63281;BME280;49406;51.044;3.766;2023-10-09T02:31:38;102181.95;;;15.87;100.00
63281;BME280;49406;51.044;3.766;2023-10-09T02:34:14;102181.94;;;15.85;100.00
63281;BME280;49406;51.044;3.766;2023-10-09T02:36:49;102181.92;;;15.84;100.00
63281;BME280;49406;51.044;3.766;2023-10-09T02:39:30;102182.45;;;15.81;100.00
63281;BME280;49406;51.044;3.766;2023-10-09T02:42:10;102178.31;;;15.75;100.00
63281;BME280;49406;51.044;3.766;2023-10-09T02:44:56;102165.21;;;15.67;100.00
63281;BME280;49406;51.044;3.766;2023-10-09T02:47:32;102163.45;;;15.67;100.00
63281;BME280;49406;51.044;3.766;2023-10-09T02:50:12;102168.05;;;15.70;100.00
63281;BME280;49406;51.044;3.766;2023-10-09T02:52:52;102166.99;;;15.69;100.00
63281;BME280;49406;51.044;3.766;2023-10-09T02:55:33;102165.74;;;15.66;100.00
63281;BME280;49406;51.044;3.766;2023-10-09T02:58:11;102165.86;;;15.61;100.00
63281;BME280;49406;51.044;3.766;2023-10-09T03:00:54;102164.02;;;15.55;100.00
63281;BME280;49406;51.044;3.766;2023-10-09T03:03:28;102168.90;;;15.48;100.00
63281;BME280;49406;51.044;3.766;2023-10-09T03:06:03;102165.33;;;15.45;100.00
63281;BME280;49406;51.044;3.766;2023-10-09T03:08:44;102169.59;;;15.46;100.00
63281;BME280;49406;51.044;3.766;2023-10-09T03:11:20;102167.44;;;15.44;100.00
63281;BME280;49406;51.044;3.766;2023-10-09T03:13:55;102163.70;;;15.40;100.00
63281;BME280;49406;51.044;3.766;2023-10-09T03:16:29;102161.89;;;15.34;100.00
63281;BME280;49406;51.044;3.766;2023-10-09T03:19:04;102152.48;;;15.28;100.00
63281;BME280;49406;51.044;3.766;2023-10-09T03:21:39;102151.02;;;15.23;100.00
63281;BME280;49406;51.044;3.766;2023-10-09T03:24:13;102139.88;;;15.17;100.00
63281;BME280;49406;51.044;3.766;2023-10-09T03:26:49;102146.44;;;15.22;100.00
63281;BME280;49406;51.044;3.766;2023-10-09T03:29:25;102143.11;;;15.23;100.00
63281;BME280;49406;51.044;3.766;2023-10-09T03:32:00;102147.01;;;15.26;100.00
63281;BME280;49406;51.044;3.766;2023-10-09T03:34:35;102148.65;;;15.30;100.00
63281;BME280;49406;51.044;3.766;2023-10-09T03:37:10;102147.44;;;15.33;100.00
63281;BME280;49406;51.044;3.766;2023-10-09T03:40:06;102154.67;;;15.33;100.00
63281;BME280;49406;51.044;3.766;2023-10-09T03:42:41;102152.27;;;15.42;100.00
63281;BME280;49406;51.044;3.766;2023-10-09T03:45:16;102154.47;;;15.51;100.00
63281;BME280;49406;51.044;3.766;2023-10-09T03:47:58;102155.38;;;15.56;100.00
63281;BME280;49406;51.044;3.766;2023-10-09T03:50:42;102155.61;;;15.59;100.00
63281;BME280;49406;51.044;3.766;2023-10-09T03:53:16;102155.73;;;15.55;100.00
63281;BME280;49406;51.044;3.766;2023-10-09T03:55:52;102152.38;;;15.54;100.00
63281;BME280;49406;51.044;3.766;2023-10-09T03:58:27;102147.60;;;15.52;100.00
63281;BME280;49406;51.044;3.766;2023-10-09T04:01:10;102155.44;;;15.60;100.00
63281;BME280;49406;51.044;3.766;2023-10-09T04:03:50;102155.85;;;15.63;100.00
63281;BME280;49406;51.044;3.766;2023-10-09T04:06:30;102156.38;;;15.63;100.00
63281;BME280;49406;51.044;3.766;2023-10-09T04:09:07;102148.11;;;15.66;100.00
63281;BME280;49406;51.044;3.766;2023-10-09T04:12:00;102146.49;;;15.62;100.00
63281;BME280;49406;51.044;3.766;2023-10-09T04:14:54;102154.61;;;15.65;100.00
63281;BME280;49406;51.044;3.766;2023-10-09T04:17:31;102152.89;;;15.70;100.00
63281;BME280;49406;51.044;3.766;2023-10-09T04:20:10;102159.06;;;15.69;100.00
63281;BME280;49406;51.044;3.766;2023-10-09T04:23:04;102164.55;;;15.72;100.00
63281;BME280;49406;51.044;3.766;2023-10-09T04:25:39;102160.48;;;15.72;100.00
63281;BME280;49406;51.044;3.766;2023-10-09T04:28:18;102145.84;;;15.70;100.00
63281;BME280;49406;51.044;3.766;2023-10-09T04:30:55;102140.57;;;15.73;100.00
63281;BME280;49406;51.044;3.766;2023-10-09T04:33:32;102138.27;;;15.74;100.00
63281;BME280;49406;51.044;3.766;2023-10-09T04:36:15;102148.04;;;15.79;100.00
63281;BME280;49406;51.044;3.766;2023-10-09T04:38:55;102141.34;;;15.80;100.00
63281;BME280;49406;51.044;3.766;2023-10-09T04:41:49;102137.94;;;15.77;100.00
63281;BME280;49406;51.044;3.766;2023-10-09T04:44:27;102137.40;;;15.74;100.00
63281;BME280;49406;51.044;3.766;2023-10-09T04:47:09;102145.94;;;15.81;100.00
63281;BME280;49406;51.044;3.766;2023-10-09T04:49:53;102144.20;;;15.85;100.00
63281;BME280;49406;51.044;3.766;2023-10-09T04:52:44;102137.11;;;15.82;100.00
63281;BME280;49406;51.044;3.766;2023-10-09T04:55:28;102143.64;;;15.81;100.00
63281;BME280;49406;51.044;3.766;2023-10-09T04:58:11;102135.81;;;15.74;100.00
63281;BME280;49406;51.044;3.766;2023-10-09T05:00:57;102145.01;;;15.77;100.00
63281;BME280;49406;51.044;3.766;2023-10-09T05:03:45;102155.11;;;15.82;100.00
63281;BME280;49406;51.044;3.766;2023-10-09T05:06:30;102155.13;;;15.84;100.00
63281;BME280;49406;51.044;3.766;2023-10-09T05:09:28;102154.93;;;15.82;100.00
63281;BME280;49406;51.044;3.766;2023-10-09T05:12:23;102157.91;;;15.79;100.00
63281;BME280;49406;51.044;3.766;2023-10-09T05:15:00;102161.03;;;15.75;100.00
63281;BME280;49406;51.044;3.766;2023-10-09T05:17:42;102160.63;;;15.67;100.00
63281;BME280;49406;51.044;3.766;2023-10-09T05:20:25;102159.02;;;15.63;100.00
63281;BME280;49406;51.044;3.766;2023-10-09T05:23:17;102156.05;;;15.66;100.00
63281;BME280;49406;51.044;3.766;2023-10-09T05:25:59;102161.49;;;15.64;100.00
63281;BME280;49406;51.044;3.766;2023-10-09T05:28:53;102160.94;;;15.61;100.00
63281;BME280;49406;51.044;3.766;2023-10-09T05:31:31;102171.12;;;15.60;100.00
63281;BME280;49406;51.044;3.766;2023-10-09T05:34:29;102176.00;;;15.55;100.00
63281;BME280;49406;51.044;3.766;2023-10-09T05:37:08;102176.16;;;15.52;100.00
63281;BME280;49406;51.044;3.766;2023-10-09T05:39:56;102165.96;;;15.56;100.00
63281;BME280;49406;51.044;3.766;2023-10-09T05:42:52;102164.20;;;15.56;100.00
63281;BME280;49406;51.044;3.766;2023-10-09T05:45:36;102164.54;;;15.54;100.00
63281;BME280;49406;51.044;3.766;2023-10-09T05:48:42;102164.52;;;15.52;100.00
63281;BME280;49406;51.044;3.766;2023-10-09T05:51:27;102154.27;;;15.48;100.00
63281;BME280;49406;51.044;3.766;2023-10-09T05:54:17;102154.79;;;15.47;100.00
63281;BME280;49406;51.044;3.766;2023-10-09T05:57:09;102163.83;;;15.54;100.00
63281;BME280;49406;51.044;3.766;2023-10-09T05:59:57;102161.02;;;15.54;100.00
63281;BME280;49406;51.044;3.766;2023-10-09T06:03:04;102149.88;;;15.51;100.00
63281;BME280;49406;51.044;3.766;2023-10-09T06:05:54;102154.45;;;15.47;100.00
63281;BME280;49406;51.044;3.766;2023-10-09T06:08:37;102166.55;;;15.43;100.00
63281;BME280;49406;51.044;3.766;2023-10-09T06:11:37;102167.06;;;15.43;100.00
63281;BME280;49406;51.044;3.766;2023-10-09T06:14:23;102172.95;;;15.47;100.00
63281;BME280;49406;51.044;3.766;2023-10-09T06:17:21;102171.89;;;15.49;100.00
63281;BME280;49406;51.044;3.766;2023-10-09T06:19:57;102171.02;;;15.50;100.00
63281;BME280;49406;51.044;3.766;2023-10-09T06:22:58;102172.26;;;15.49;100.00
63281;BME280;49406;51.044;3.766;2023-10-09T06:25:48;102164.45;;;15.45;100.00
63281;BME280;49406;51.044;3.766;2023-10-09T06:28:25;102164.59;;;15.41;100.00
63281;BME280;49406;51.044;3.766;2023-10-09T06:31:07;102168.19;;;15.48;100.00
63281;BME280;49406;51.044;3.766;2023-10-09T06:33:55;102168.02;;;15.51;100.00
63281;BME280;49406;51.044;3.766;2023-10-09T06:36:48;102168.59;;;15.53;100.00
63281;BME280;49406;51.044;3.766;2023-10-09T06:39:27;102171.24;;;15.56;100.00
63281;BME280;49406;51.044;3.766;2023-10-09T06:42:19;102173.73;;;15.57;100.00
63281;BME280;49406;51.044;3.766;2023-10-09T06:45:09;102172.48;;;15.55;100.00
63281;BME280;49406;51.044;3.766;2023-10-09T06:47:49;102168.30;;;15.59;100.00
63281;BME280;49406;51.044;3.766;2023-10-09T06:50:29;102168.74;;;15.67;100.00
63281;BME280;49406;51.044;3.766;2023-10-09T06:53:25;102170.71;;;15.72;100.00
63281;BME280;49406;51.044;3.766;2023-10-09T06:56:21;102166.17;;;15.77;100.00
63281;BME280;49406;51.044;3.766;2023-10-09T06:59:01;102172.41;;;15.84;100.00
63281;BME280;49406;51.044;3.766;2023-10-09T07:01:48;102178.24;;;15.87;100.00
63281;BME280;49406;51.044;3.766;2023-10-09T07:04:45;102174.73;;;15.91;100.00
63281;BME280;49406;51.044;3.766;2023-10-09T07:07:20;102177.64;;;16.01;100.00
63281;BME280;49406;51.044;3.766;2023-10-09T07:09:57;102185.44;;;16.08;100.00
63281;BME280;49406;51.044;3.766;2023-10-09T07:12:48;102191.11;;;16.11;100.00
63281;BME280;49406;51.044;3.766;2023-10-09T07:15:28;102188.35;;;16.20;100.00
63281;BME280;49406;51.044;3.766;2023-10-09T07:18:20;102193.38;;;16.35;100.00
63281;BME280;49406;51.044;3.766;2023-10-09T07:20:56;102202.34;;;16.58;100.00
63281;BME280;49406;51.044;3.766;2023-10-09T07:23:34;102200.77;;;16.98;100.00
63281;BME280;49406;51.044;3.766;2023-10-09T07:26:09;102201.57;;;17.33;100.00
63281;BME280;49406;51.044;3.766;2023-10-09T07:28:56;102200.18;;;17.56;100.00
63281;BME280;49406;51.044;3.766;2023-10-09T07:31:50;102208.02;;;17.78;100.00
63281;BME280;49406;51.044;3.766;2023-10-09T07:34:31;102215.27;;;17.94;100.00
63281;BME280;49406;51.044;3.766;2023-10-09T07:37:27;102210.31;;;18.01;100.00
63281;BME280;49406;51.044;3.766;2023-10-09T07:40:05;102209.79;;;17.98;100.00
63281;BME280;49406;51.044;3.766;2023-10-09T07:42:39;102215.77;;;17.94;100.00
63281;BME280;49406;51.044;3.766;2023-10-09T07:45:25;102215.80;;;17.84;100.00
63281;BME280;49406;51.044;3.766;2023-10-09T07:48:14;102218.98;;;17.71;100.00
63281;BME280;49406;51.044;3.766;2023-10-09T07:50:49;102221.61;;;17.68;100.00
63281;BME280;49406;51.044;3.766;2023-10-09T07:53:30;102220.05;;;17.71;100.00
63281;BME280;49406;51.044;3.766;2023-10-09T07:56:16;102214.73;;;17.68;100.00
63281;BME280;49406;51.044;3.766;2023-10-09T07:58:54;102213.45;;;17.63;100.00
63281;BME280;49406;51.044;3.766;2023-10-09T08:01:33;102203.36;;;17.60;100.00
63281;BME280;49406;51.044;3.766;2023-10-09T08:04:10;102202.48;;;17.60;100.00
63281;BME280;49406;51.044;3.766;2023-10-09T08:06:45;102200.75;;;17.69;100.00
63281;BME280;49406;51.044;3.766;2023-10-09T08:09:20;102193.16;;;17.85;100.00
63281;BME280;49406;51.044;3.766;2023-10-09T08:12:18;102199.14;;;18.11;100.00
63281;BME280;49406;51.044;3.766;2023-10-09T08:15:11;102208.47;;;18.40;100.00
63281;BME280;49406;51.044;3.766;2023-10-09T08:18:05;102209.67;;;18.53;100.00
63281;BME280;49406;51.044;3.766;2023-10-09T08:20:46;102207.70;;;18.59;100.00
63281;BME280;49406;51.044;3.766;2023-10-09T08:23:41;102203.63;;;18.70;100.00
63281;BME280;49406;51.044;3.766;2023-10-09T08:26:25;102209.64;;;18.72;100.00
63281;BME280;49406;51.044;3.766;2023-10-09T08:29:03;102217.28;;;18.68;100.00
63281;BME280;49406;51.044;3.766;2023-10-09T08:31:51;102217.27;;;18.66;100.00
63281;BME280;49406;51.044;3.766;2023-10-09T08:34:30;102214.77;;;18.71;100.00
63281;BME280;49406;51.044;3.766;2023-10-09T08:37:21;102214.74;;;18.82;100.00
63281;BME280;49406;51.044;3.766;2023-10-09T08:39:58;102216.09;;;18.95;100.00
63281;BME280;49406;51.044;3.766;2023-10-09T08:42:33;102221.39;;;19.02;100.00
63281;BME280;49406;51.044;3.766;2023-10-09T08:45:09;102222.61;;;19.06;100.00
63281;BME280;49406;51.044;3.766;2023-10-09T08:47:47;102229.14;;;19.10;100.00
63281;BME280;49406;51.044;3.766;2023-10-09T08:50:25;102234.79;;;19.16;100.00
63281;BME280;49406;51.044;3.766;2023-10-09T08:53:01;102238.64;;;19.25;100.00
63281;BME280;49406;51.044;3.766;2023-10-09T08:55:38;102250.65;;;19.33;100.00
63281;BME280;49406;51.044;3.766;2023-10-09T08:58:14;102252.59;;;19.36;100.00
63281;BME280;49406;51.044;3.766;2023-10-09T09:00:54;102238.73;;;19.40;100.00
63281;BME280;49406;51.044;3.766;2023-10-09T09:03:39;102235.48;;;19.47;100.00
63281;BME280;49406;51.044;3.766;2023-10-09T09:06:14;102235.61;;;19.60;100.00
63281;BME280;49406;51.044;3.766;2023-10-09T09:08:49;102233.75;;;19.72;100.00
63281;BME280;49406;51.044;3.766;2023-10-09T09:11:28;102230.54;;;19.73;100.00
63281;BME280;49406;51.044;3.766;2023-10-09T09:14:09;102232.13;;;19.75;100.00
63281;BME280;49406;51.044;3.766;2023-10-09T09:16:52;102227.65;;;19.80;100.00
63281;BME280;49406;51.044;3.766;2023-10-09T09:19:33;102234.16;;;19.87;100.00
63281;BME280;49406;51.044;3.766;2023-10-09T09:22:11;102235.54;;;19.92;100.00
63281;BME280;49406;51.044;3.766;2023-10-09T09:24:58;102233.34;;;20.00;100.00
63281;BME280;49406;51.044;3.766;2023-10-09T09:27:48;102226.73;;;20.05;100.00
63281;BME280;49406;51.044;3.766;2023-10-09T09:30:26;102220.80;;;20.11;100.00
63281;BME280;49406;51.044;3.766;2023-10-09T09:33:20;102219.34;;;20.17;100.00
63281;BME280;49406;51.044;3.766;2023-10-09T09:36:00;102228.52;;;20.22;100.00
63281;BME280;49406;51.044;3.766;2023-10-09T09:38:35;102228.13;;;20.25;100.00
63281;BME280;49406;51.044;3.766;2023-10-09T09:41:17;102220.20;;;20.37;100.00
63281;BME280;49406;51.044;3.766;2023-10-09T09:43:58;102222.99;;;20.43;100.00
63281;BME280;49406;51.044;3.766;2023-10-09T09:46:34;102231.52;;;20.43;100.00
63281;BME280;49406;51.044;3.766;2023-10-09T09:49:10;102234.73;;;20.40;100.00
63281;BME280;49406;51.044;3.766;2023-10-09T09:51:50;102233.16;;;20.37;100.00
63281;BME280;49406;51.044;3.766;2023-10-09T09:54:24;102237.75;;;20.42;100.00
63281;BME280;49406;51.044;3.766;2023-10-09T09:57:02;102236.09;;;20.48;100.00
63281;BME280;49406;51.044;3.766;2023-10-09T09:59:42;102236.45;;;20.64;100.00
63281;BME280;49406;51.044;3.766;2023-10-09T10:02:29;102232.06;;;20.59;100.00
63281;BME280;49406;51.044;3.766;2023-10-09T10:05:09;102242.50;;;20.62;100.00
63281;BME280;49406;51.044;3.766;2023-10-09T10:07:45;102246.67;;;20.71;100.00
63281;BME280;49406;51.044;3.766;2023-10-09T10:10:37;102236.27;;;20.80;100.00
63281;BME280;49406;51.044;3.766;2023-10-09T10:13:10;102240.30;;;20.84;100.00
63281;BME280;49406;51.044;3.766;2023-10-09T10:16:04;102238.02;;;20.81;100.00
63281;BME280;49406;51.044;3.766;2023-10-09T10:18:58;102235.23;;;20.91;100.00
63281;BME280;49406;51.044;3.766;2023-10-09T10:21:40;102232.14;;;21.10;100.00
63281;BME280;49406;51.044;3.766;2023-10-09T10:24:41;102229.23;;;21.15;100.00
63281;BME280;49406;51.044;3.766;2023-10-09T10:27:30;102227.19;;;21.36;100.00
63281;BME280;49406;51.044;3.766;2023-10-09T10:30:27;102229.55;;;21.44;100.00
63281;BME280;49406;51.044;3.766;2023-10-09T10:33:06;102225.41;;;21.49;99.72
63281;BME280;49406;51.044;3.766;2023-10-09T10:35:48;102226.45;;;21.49;97.33
63281;BME280;49406;51.044;3.766;2023-10-09T10:38:29;102224.20;;;21.45;97.70
63281;BME280;49406;51.044;3.766;2023-10-09T10:41:19;102218.60;;;21.50;98.93
63281;BME280;49406;51.044;3.766;2023-10-09T10:43:55;102228.87;;;21.65;98.32
63281;BME280;49406;51.044;3.766;2023-10-09T10:46:35;102239.70;;;21.78;98.19
63281;BME280;49406;51.044;3.766;2023-10-09T10:49:17;102248.77;;;21.89;97.09
63281;BME280;49406;51.044;3.766;2023-10-09T10:51:54;102243.27;;;21.99;96.87
63281;BME280;49406;51.044;3.766;2023-10-09T10:54:48;102240.66;;;22.08;94.84
63281;BME280;49406;51.044;3.766;2023-10-09T10:57:39;102244.45;;;22.15;95.44
63281;BME280;49406;51.044;3.766;2023-10-09T11:00:33;102256.57;;;22.25;94.30
63281;BME280;49406;51.044;3.766;2023-10-09T11:03:26;102259.93;;;22.36;93.05
63281;BME280;49406;51.044;3.766;2023-10-09T11:06:08;102260.58;;;22.40;92.58
63281;BME280;49406;51.044;3.766;2023-10-09T11:08:48;102253.27;;;22.39;91.72
63281;BME280;49406;51.044;3.766;2023-10-09T11:11:27;102256.92;;;22.44;92.28
63281;BME280;49406;51.044;3.766;2023-10-09T11:14:14;102254.45;;;22.43;91.68
63281;BME280;49406;51.044;3.766;2023-10-09T11:16:50;102253.40;;;22.42;92.80
63281;BME280;49406;51.044;3.766;2023-10-09T11:19:31;102259.88;;;22.47;91.99
63281;BME280;49406;51.044;3.766;2023-10-09T11:22:06;102264.67;;;22.58;91.93
63281;BME280;49406;51.044;3.766;2023-10-09T11:25:00;102262.94;;;22.65;91.39
63281;BME280;49406;51.044;3.766;2023-10-09T11:27:46;102260.79;;;22.74;92.18
63281;BME280;49406;51.044;3.766;2023-10-09T11:30:32;102250.66;;;22.83;91.31
63281;BME280;49406;51.044;3.766;2023-10-09T11:33:06;102246.48;;;22.87;91.28
63281;BME280;49406;51.044;3.766;2023-10-09T11:35:56;102242.57;;;22.95;91.30
63281;BME280;49406;51.044;3.766;2023-10-09T11:38:38;102242.88;;;23.06;90.92
63281;BME280;49406;51.044;3.766;2023-10-09T11:41:19;102241.34;;;23.18;89.92
63281;BME280;49406;51.044;3.766;2023-10-09T11:43:56;102230.44;;;23.27;90.59
63281;BME280;49406;51.044;3.766;2023-10-09T11:46:31;102234.34;;;23.36;88.93
63281;BME280;49406;51.044;3.766;2023-10-09T11:49:22;102235.29;;;23.33;88.17
63281;BME280;49406;51.044;3.766;2023-10-09T11:52:17;102239.70;;;23.28;87.20
63281;BME280;49406;51.044;3.766;2023-10-09T11:55:09;102254.13;;;23.22;86.96
63281;BME280;49406;51.044;3.766;2023-10-09T11:57:48;102255.37;;;23.13;87.00
63281;BME280;49406;51.044;3.766;2023-10-09T12:00:23;102260.62;;;23.18;88.17
63281;BME280;49406;51.044;3.766;2023-10-09T12:03:02;102249.17;;;23.27;87.36
63281;BME280;49406;51.044;3.766;2023-10-09T12:05:39;102244.39;;;23.33;85.87
63281;BME280;49406;51.044;3.766;2023-10-09T12:08:17;102249.08;;;23.31;85.67
63281;BME280;49406;51.044;3.766;2023-10-09T12:10:56;102241.14;;;23.36;85.24
63281;BME280;49406;51.044;3.766;2023-10-09T12:13:30;102234.41;;;23.41;85.31
63281;BME280;49406;51.044;3.766;2023-10-09T12:16:05;102233.31;;;23.42;84.94
63281;BME280;49406;51.044;3.766;2023-10-09T12:18:43;102236.86;;;23.42;84.66
63281;BME280;49406;51.044;3.766;2023-10-09T12:21:26;102236.52;;;23.50;85.06
63281;BME280;49406;51.044;3.766;2023-10-09T12:24:03;102237.48;;;23.54;84.37
63281;BME280;49406;51.044;3.766;2023-10-09T12:26:44;102232.61;;;23.49;84.42
63281;BME280;49406;51.044;3.766;2023-10-09T12:29:21;102237.78;;;23.41;84.81
63281;BME280;49406;51.044;3.766;2023-10-09T12:31:56;102239.10;;;23.39;85.12
63281;BME280;49406;51.044;3.766;2023-10-09T12:34:32;102233.17;;;23.32;84.80
63281;BME280;49406;51.044;3.766;2023-10-09T12:37:11;102231.73;;;23.26;85.33
63281;BME280;49406;51.044;3.766;2023-10-09T12:39:45;102232.60;;;23.18;84.77
63281;BME280;49406;51.044;3.766;2023-10-09T12:42:20;102221.16;;;23.11;86.25
63281;BME280;49406;51.044;3.766;2023-10-09T12:44:55;102206.30;;;23.13;87.20
63281;BME280;49406;51.044;3.766;2023-10-09T12:47:31;102206.47;;;23.23;87.48
63281;BME280;49406;51.044;3.766;2023-10-09T12:50:07;102207.67;;;23.24;86.56
63281;BME280;49406;51.044;3.766;2023-10-09T12:52:46;102206.63;;;23.31;87.29
63281;BME280;49406;51.044;3.766;2023-10-09T12:55:23;102205.56;;;23.30;86.73
63281;BME280;49406;51.044;3.766;2023-10-09T12:58:04;102206.94;;;23.32;86.13
63281;BME280;49406;51.044;3.766;2023-10-09T13:00:40;102212.69;;;23.23;85.40
63281;BME280;49406;51.044;3.766;2023-10-09T13:03:21;102217.39;;;23.13;86.50
63281;BME280;49406;51.044;3.766;2023-10-09T13:06:01;102227.81;;;23.09;86.74
63281;BME280;49406;51.044;3.766;2023-10-09T13:08:40;102228.42;;;23.05;87.39
63281;BME280;49406;51.044;3.766;2023-10-09T13:11:18;102230.18;;;23.15;87.44
63281;BME280;49406;51.044;3.766;2023-10-09T13:13:53;102227.23;;;23.20;87.67
63281;BME280;49406;51.044;3.766;2023-10-09T13:16:27;102223.02;;;23.24;86.88
63281;BME280;49406;51.044;3.766;2023-10-09T13:19:02;102225.02;;;23.22;87.12
63281;BME280;49406;51.044;3.766;2023-10-09T13:21:42;102223.41;;;23.23;87.28
63281;BME280;49406;51.044;3.766;2023-10-09T13:24:17;102215.23;;;23.22;87.19
63281;BME280;49406;51.044;3.766;2023-10-09T13:26:57;102212.67;;;23.24;87.09
63281;BME280;49406;51.044;3.766;2023-10-09T13:29:32;102219.09;;;23.31;86.89
63281;BME280;49406;51.044;3.766;2023-10-09T13:32:07;102217.39;;;23.36;86.27
63281;BME280;49406;51.044;3.766;2023-10-09T13:34:46;102218.61;;;23.44;86.95
63281;BME280;49406;51.044;3.766;2023-10-09T13:37:22;102217.29;;;23.48;86.88
63281;BME280;49406;51.044;3.766;2023-10-09T13:39:57;102213.14;;;23.49;86.85
63281;BME280;49406;51.044;3.766;2023-10-09T13:42:32;102207.02;;;23.52;85.94
63281;BME280;49406;51.044;3.766;2023-10-09T13:45:10;102201.49;;;23.51;84.81
63281;BME280;49406;51.044;3.766;2023-10-09T13:47:48;102203.78;;;23.53;85.45
63281;BME280;49406;51.044;3.766;2023-10-09T13:50:24;102203.48;;;23.51;82.27
63281;BME280;49406;51.044;3.766;2023-10-09T13:53:02;102197.52;;;23.46;81.68
63281;BME280;49406;51.044;3.766;2023-10-09T13:55:43;102193.08;;;23.45;82.08